Time;durP1;ratioP1;P1;durP2;ratioP2;P2;SDS_P1;SDS_P2;PMS_P1;PMS_P2;Temp;Humidity;BMP_temperature;BMP_pressure;BME280_temperature;BME280_humidity;BME280_pressure;Samples;Min_cycle;Max_cycle;Signal;HPM_P1;HPM_P2
2023/05/31 00:00:09;;;;;;;0.35;0.32;;;;;;;;;;5033997;28;20083;-83
2023/05/31 00:02:35;;;;;;;0.43;0.43;;;;;;;;;;5037711;28;20123;-83
2023/05/31 00:05:01;;;;;;;0.40;0.38;;;;;;;;;;5040765;28;20104;-83
2023/05/31 00:07:27;;;;;;;0.30;0.30;;;;;;;;;;5043689;28;20033;-83
2023/05/31 00:09:53;;;;;;;0.47;0.32;;;;;;;;;;5041171;28;20048;-83
2023/05/31 00:12:19;;;;;;;0.90;0.50;;;;;;;;;;5053947;28;20025;-83
2023/05/31 00:14:46;;;;;;;0.60;0.40;;;;;;;;;;5041939;28;20464;-82
2023/05/31 00:17:12;;;;;;;0.35;0.35;;;;;;;;;;5060445;28;20020;-83
2023/05/31 00:19:38;;;;;;;0.52;0.45;;;;;;;;;;5052865;28;20101;-83
2023/05/31 00:22:05;;;;;;;0.38;0.38;;;;;;;;;;5043147;28;20132;-83
2023/05/31 00:24:31;;;;;;;0.75;0.60;;;;;;;;;;5046366;28;20021;-83
2023/05/31 00:26:57;;;;;;;0.32;0.32;;;;;;;;;;5032744;28;20025;-82
2023/05/31 00:29:23;;;;;;;1.58;0.73;;;;;;;;;;5048618;28;20064;-83
2023/05/31 00:31:49;;;;;;;0.50;0.50;;;;;;;;;;5045541;28;20040;-83
2023/05/31 00:34:15;;;;;;;0.40;0.40;;;;;;;;;;5040065;28;20033;-82
2023/05/31 00:36:41;;;;;;;1.25;0.30;;;;;;;;;;5036912;28;20530;-83
2023/05/31 00:39:07;;;;;;;0.40;0.40;;;;;;;;;;5040559;28;20029;-83
2023/05/31 00:41:33;;;;;;;0.80;0.70;;;;;;;;;;5043372;28;20036;-83
2023/05/31 00:43:59;;;;;;;0.38;0.38;;;;;;;;;;5036809;28;20021;-83
2023/05/31 00:46:26;;;;;;;0.38;0.38;;;;;;;;;;5038435;28;20073;-82
2023/05/31 00:48:52;;;;;;;0.60;0.32;;;;;;;;;;5042047;28;20075;-83
2023/05/31 00:51:19;;;;;;;0.40;0.40;;;;;;;;;;5044501;28;20036;-82
2023/05/31 00:53:45;;;;;;;0.30;0.30;;;;;;;;;;5045107;28;20040;-82
2023/05/31 00:56:13;;;;;;;1.98;0.30;;;;;;;;;;5041416;28;20095;-82
2023/05/31 00:58:43;;;;;;;0.40;0.40;;;;;;;;;;5041389;28;20090;-82
2023/05/31 01:01:09;;;;;;;0.70;0.60;;;;;;;;;;5045311;28;20032;-82
2023/05/31 01:03:35;;;;;;;0.45;0.45;;;;;;;;;;5035335;28;20439;-82
2023/05/31 01:06:02;;;;;;;0.50;0.50;;;;;;;;;;5040488;28;20631;-82
2023/05/31 01:08:28;;;;;;;0.40;0.32;;;;;;;;;;5043672;28;20029;-83
2023/05/31 01:10:57;;;;;;;0.30;0.30;;;;;;;;;;5041144;28;20033;-82
2023/05/31 01:13:33;;;;;;;0.60;0.50;;;;;;;;;;5043956;28;20614;-82
2023/05/31 01:16:07;;;;;;;0.30;0.30;;;;;;;;;;5032194;28;20057;-83
2023/05/31 01:18:37;;;;;;;0.73;0.52;;;;;;;;;;5040632;28;20037;-82
2023/05/31 01:21:05;;;;;;;1.42;0.40;;;;;;;;;;5036542;28;20112;-82
2023/05/31 01:23:49;;;;;;;0.82;0.52;;;;;;;;;;5034811;28;20029;-81
2023/05/31 01:26:22;;;;;;;0.55;0.55;;;;;;;;;;5031079;28;20119;-82
2023/05/31 01:28:50;;;;;;;0.40;0.40;;;;;;;;;;5042443;28;20045;-82
2023/05/31 01:31:17;;;;;;;1.27;0.63;;;;;;;;;;5045777;28;20020;-82
2023/05/31 01:33:44;;;;;;;0.85;0.40;;;;;;;;;;5035418;28;20083;-82
2023/05/31 01:36:10;;;;;;;0.55;0.40;;;;;;;;;;5037216;28;20029;-83
2023/05/31 01:38:36;;;;;;;0.60;0.43;;;;;;;;;;5034532;28;20029;-82
2023/05/31 01:41:06;;;;;;;0.17;0.17;;;;;;;;;;5038530;28;20025;-82
2023/05/31 01:43:32;;;;;;;0.45;0.30;;;;;;;;;;5037536;28;20032;-83
2023/05/31 01:45:58;;;;;;;0.90;0.43;;;;;;;;;;5039409;28;20037;-82
2023/05/31 01:48:25;;;;;;;0.22;0.22;;;;;;;;;;5043413;28;20024;-82
2023/05/31 01:50:51;;;;;;;0.68;0.45;;;;;;;;;;5031117;28;20137;-82
2023/05/31 01:53:17;;;;;;;1.05;0.40;;;;;;;;;;5038935;28;20037;-81
2023/05/31 01:55:43;;;;;;;0.40;0.40;;;;;;;;;;5042331;28;20044;-82
2023/05/31 01:58:10;;;;;;;0.30;0.22;;;;;;;;;;5029942;28;20559;-83
2023/05/31 02:00:37;;;;;;;0.50;0.50;;;;;;;;;;5037296;28;20491;-82
2023/05/31 02:03:06;;;;;;;0.88;0.70;;;;;;;;;;5041689;28;20031;-81
2023/05/31 02:05:32;;;;;;;0.73;0.70;;;;;;;;;;5001051;28;988140;-82
2023/05/31 02:07:58;;;;;;;0.93;0.60;;;;;;;;;;5042849;28;20021;-82
2023/05/31 02:10:24;;;;;;;0.88;0.65;;;;;;;;;;5038857;28;20037;-82
2023/05/31 02:12:50;;;;;;;0.35;0.30;;;;;;;;;;5047309;28;20029;-82
2023/05/31 02:15:19;;;;;;;0.20;0.20;;;;;;;;;;5041529;28;20054;-81
2023/05/31 02:17:46;;;;;;;0.30;0.30;;;;;;;;;;5041146;28;20776;-82
2023/05/31 02:20:13;;;;;;;0.52;0.43;;;;;;;;;;5035723;28;20036;-82
2023/05/31 02:22:42;;;;;;;0.63;0.45;;;;;;;;;;5038262;28;20087;-82
2023/05/31 02:25:09;;;;;;;0.40;0.40;;;;;;;;;;5030508;28;20394;-82
2023/05/31 02:27:35;;;;;;;0.57;0.43;;;;;;;;;;5031259;28;20393;-82
2023/05/31 02:30:01;;;;;;;0.63;0.60;;;;;;;;;;5040278;28;20032;-83
2023/05/31 02:32:26;;;;;;;1.38;0.40;;;;;;;;;;5037596;28;20489;-83
2023/05/31 02:34:52;;;;;;;0.32;0.30;;;;;;;;;;5034158;28;20052;-83
2023/05/31 02:37:18;;;;;;;0.80;0.30;;;;;;;;;;5047194;28;20112;-82
2023/05/31 02:39:44;;;;;;;0.50;0.50;;;;;;;;;;5039747;28;20036;-84
2023/05/31 02:42:10;;;;;;;0.95;0.40;;;;;;;;;;5039435;28;20056;-83
2023/05/31 02:44:36;;;;;;;0.40;0.40;;;;;;;;;;5040743;28;20033;-83
2023/05/31 02:47:02;;;;;;;0.30;0.30;;;;;;;;;;5041535;28;20070;-84
2023/05/31 02:49:28;;;;;;;0.50;0.50;;;;;;;;;;5039641;28;20104;-84
2023/05/31 02:51:54;;;;;;;0.30;0.30;;;;;;;;;;5041429;28;20275;-84
2023/05/31 02:54:21;;;;;;;0.77;0.52;;;;;;;;;;5037758;28;20017;-84
2023/05/31 02:56:47;;;;;;;0.32;0.32;;;;;;;;;;5041726;28;20029;-83
2023/05/31 02:59:13;;;;;;;0.30;0.30;;;;;;;;;;5040908;28;20032;-84
2023/05/31 03:01:40;;;;;;;0.20;0.20;;;;;;;;;;5041026;28;20120;-84
2023/05/31 03:04:06;;;;;;;0.40;0.40;;;;;;;;;;5035909;28;20029;-84
2023/05/31 03:06:33;;;;;;;0.50;0.38;;;;;;;;;;5033184;28;20064;-84
2023/05/31 03:08:59;;;;;;;0.98;0.32;;;;;;;;;;5030353;28;20025;-84
2023/05/31 03:11:25;;;;;;;0.40;0.40;;;;;;;;;;5036717;28;20025;-84
2023/05/31 03:13:52;;;;;;;1.05;0.70;;;;;;;;;;5040312;28;20380;-84
2023/05/31 03:16:20;;;;;;;0.63;0.30;;;;;;;;;;5032951;28;20026;-84
2023/05/31 03:18:46;;;;;;;0.60;0.47;;;;;;;;;;5035927;28;20108;-83
2023/05/31 03:21:12;;;;;;;0.30;0.30;;;;;;;;;;5042261;28;20493;-83
2023/05/31 03:23:38;;;;;;;0.50;0.50;;;;;;;;;;5043574;28;20128;-84
2023/05/31 03:26:04;;;;;;;0.30;0.30;;;;;;;;;;5044540;28;20024;-84
2023/05/31 03:28:30;;;;;;;0.30;0.30;;;;;;;;;;5037408;28;20157;-84
2023/05/31 03:30:56;;;;;;;0.25;0.25;;;;;;;;;;5036845;28;20032;-84
2023/05/31 03:33:23;;;;;;;1.27;0.45;;;;;;;;;;5043801;28;20033;-83
2023/05/31 03:35:49;;;;;;;0.17;0.17;;;;;;;;;;5040899;28;20028;-83
2023/05/31 03:38:15;;;;;;;0.30;0.30;;;;;;;;;;5046519;28;20021;-84
2023/05/31 03:40:41;;;;;;;0.40;0.40;;;;;;;;;;5036441;28;20035;-83
2023/05/31 03:43:07;;;;;;;0.40;0.40;;;;;;;;;;5037063;28;20022;-86
2023/05/31 03:45:33;;;;;;;0.30;0.30;;;;;;;;;;5037133;28;20484;-85
2023/05/31 03:47:59;;;;;;;1.30;0.40;;;;;;;;;;5032035;28;20389;-83
2023/05/31 03:50:25;;;;;;;0.40;0.40;;;;;;;;;;5036288;28;20032;-83
2023/05/31 03:52:51;;;;;;;0.40;0.40;;;;;;;;;;5034250;28;20030;-77
2023/05/31 03:55:17;;;;;;;0.52;0.52;;;;;;;;;;5042738;28;20026;-75
2023/05/31 03:57:43;;;;;;;0.30;0.30;;;;;;;;;;5042418;28;20550;-76
2023/05/31 04:00:12;;;;;;;0.50;0.50;;;;;;;;;;5045870;28;20025;-75
2023/05/31 04:02:38;;;;;;;0.30;0.30;;;;;;;;;;5045618;28;20036;-76
2023/05/31 04:05:05;;;;;;;0.40;0.40;;;;;;;;;;5042720;28;20038;-76
2023/05/31 04:07:32;;;;;;;0.75;0.50;;;;;;;;;;5045959;28;20024;-76
2023/05/31 04:09:58;;;;;;;1.08;0.75;;;;;;;;;;5037685;28;20025;-76
2023/05/31 04:12:24;;;;;;;0.52;0.52;;;;;;;;;;5034965;28;20032;-76
2023/05/31 04:14:51;;;;;;;0.50;0.43;;;;;;;;;;5038894;28;20076;-77
2023/05/31 04:17:17;;;;;;;2.20;0.70;;;;;;;;;;5066323;28;20088;-76
2023/05/31 04:19:43;;;;;;;0.57;0.40;;;;;;;;;;5050366;28;20073;-77
2023/05/31 04:22:09;;;;;;;0.73;0.60;;;;;;;;;;5038912;28;20055;-78
2023/05/31 04:24:35;;;;;;;0.50;0.50;;;;;;;;;;5038492;28;20059;-75
2023/05/31 04:27:02;;;;;;;0.65;0.50;;;;;;;;;;5032510;28;20603;-77
2023/05/31 04:29:29;;;;;;;0.38;0.38;;;;;;;;;;5034511;28;20396;-75
2023/05/31 04:31:55;;;;;;;1.95;0.55;;;;;;;;;;5038710;28;20036;-76
2023/05/31 04:34:21;;;;;;;0.57;0.57;;;;;;;;;;5036929;28;20056;-77
2023/05/31 04:36:48;;;;;;;0.43;0.43;;;;;;;;;;5032392;28;20140;-80
2023/05/31 04:39:15;;;;;;;0.52;0.20;;;;;;;;;;5037520;28;20037;-76
2023/05/31 04:42:05;;;;;;;0.52;0.32;;;;;;;;;;5039366;28;20051;-78
2023/05/31 04:44:31;;;;;;;0.50;0.50;;;;;;;;;;5032479;28;20125;-77
2023/05/31 04:46:57;;;;;;;1.48;0.60;;;;;;;;;;5040973;28;20029;-78
2023/05/31 04:49:24;;;;;;;0.45;0.45;;;;;;;;;;5045864;28;20106;-77
2023/05/31 04:51:50;;;;;;;3.53;0.45;;;;;;;;;;5039506;28;20124;-77
2023/05/31 04:54:16;;;;;;;0.40;0.40;;;;;;;;;;5046262;28;20033;-78
2023/05/31 04:56:42;;;;;;;3.30;0.57;;;;;;;;;;5044490;28;20510;-78
2023/05/31 04:59:08;;;;;;;0.50;0.50;;;;;;;;;;5036517;28;20037;-79
2023/05/31 05:01:34;;;;;;;1.80;0.63;;;;;;;;;;5039744;28;20031;-79
2023/05/31 05:04:00;;;;;;;1.02;0.57;;;;;;;;;;5039385;28;20446;-79
2023/05/31 05:06:26;;;;;;;0.50;0.50;;;;;;;;;;5030491;28;20037;-76
2023/05/31 05:08:52;;;;;;;1.50;0.43;;;;;;;;;;5042597;28;20029;-72
2023/05/31 05:11:18;;;;;;;3.08;0.40;;;;;;;;;;5036844;28;20033;-74
2023/05/31 05:13:44;;;;;;;2.70;1.42;;;;;;;;;;5045979;28;20045;-75
2023/05/31 05:16:10;;;;;;;0.32;0.32;;;;;;;;;;5039886;28;20029;-76
2023/05/31 05:18:36;;;;;;;0.95;0.50;;;;;;;;;;5041123;28;20036;-75
2023/05/31 05:21:03;;;;;;;0.60;0.60;;;;;;;;;;5039866;28;20040;-76
2023/05/31 05:23:29;;;;;;;1.55;0.50;;;;;;;;;;5042715;28;20087;-74
2023/05/31 05:25:55;;;;;;;0.55;0.50;;;;;;;;;;5033603;28;20036;-74
2023/05/31 05:28:22;;;;;;;0.35;0.35;;;;;;;;;;5033725;28;20079;-74
2023/05/31 05:30:48;;;;;;;0.85;0.55;;;;;;;;;;5042416;28;20036;-74
2023/05/31 05:33:14;;;;;;;0.40;0.40;;;;;;;;;;5038338;28;20025;-74
2023/05/31 05:35:40;;;;;;;3.25;0.52;;;;;;;;;;5030451;28;20083;-75
2023/05/31 05:38:06;;;;;;;1.13;0.43;;;;;;;;;;5034962;28;20036;-75
2023/05/31 05:40:32;;;;;;;0.60;0.60;;;;;;;;;;5054960;28;20059;-75
2023/05/31 05:42:58;;;;;;;0.93;0.70;;;;;;;;;;5034496;28;20122;-75
2023/05/31 05:45:24;;;;;;;0.60;0.38;;;;;;;;;;5045036;28;20083;-75
2023/05/31 05:47:50;;;;;;;1.60;0.85;;;;;;;;;;5033968;28;20022;-75
2023/05/31 05:50:16;;;;;;;3.50;0.80;;;;;;;;;;5048087;28;20028;-76
2023/05/31 05:52:42;;;;;;;1.50;0.82;;;;;;;;;;5047940;28;20024;-75
2023/05/31 05:55:09;;;;;;;5.45;1.10;;;;;;;;;;5046293;28;20498;-75
2023/05/31 05:57:35;;;;;;;0.60;0.60;;;;;;;;;;5045655;28;20033;-75
2023/05/31 06:00:09;;;;;;;0.52;0.50;;;;;;;;;;5048057;28;20106;-75
2023/05/31 06:02:35;;;;;;;0.65;0.50;;;;;;;;;;5047706;28;20056;-76
2023/05/31 06:05:01;;;;;;;1.42;0.70;;;;;;;;;;5038098;28;20086;-76
2023/05/31 06:07:27;;;;;;;0.70;0.40;;;;;;;;;;5042539;28;20468;-75
2023/05/31 06:09:53;;;;;;;1.38;0.60;;;;;;;;;;5047258;28;20032;-75
2023/05/31 06:12:19;;;;;;;0.40;0.38;;;;;;;;;;5047856;28;20017;-75
2023/05/31 06:14:45;;;;;;;3.05;0.82;;;;;;;;;;5045515;28;20029;-74
2023/05/31 06:17:11;;;;;;;1.00;0.45;;;;;;;;;;5046914;28;20074;-75
2023/05/31 06:19:37;;;;;;;0.50;0.50;;;;;;;;;;5042244;28;20026;-74
2023/05/31 06:22:03;;;;;;;0.85;0.60;;;;;;;;;;5048082;28;20109;-75
2023/05/31 06:24:29;;;;;;;0.65;0.60;;;;;;;;;;5047767;28;20625;-74
2023/05/31 06:26:55;;;;;;;2.78;1.15;;;;;;;;;;5037594;28;20021;-74
2023/05/31 06:29:21;;;;;;;0.25;0.25;;;;;;;;;;5048001;28;20468;-75
2023/05/31 06:31:47;;;;;;;0.80;0.32;;;;;;;;;;5042848;28;20021;-74
2023/05/31 06:34:13;;;;;;;1.35;0.55;;;;;;;;;;5042863;28;20021;-75
2023/05/31 06:36:39;;;;;;;1.58;0.60;;;;;;;;;;5045479;28;20033;-75
2023/05/31 06:39:05;;;;;;;0.95;0.65;;;;;;;;;;5035511;28;20033;-75
2023/05/31 06:41:34;;;;;;;1.40;0.70;;;;;;;;;;5039024;28;20515;-75
2023/05/31 06:44:03;;;;;;;0.50;0.50;;;;;;;;;;5047950;28;20021;-75
2023/05/31 06:46:29;;;;;;;0.80;0.50;;;;;;;;;;5043917;28;20069;-74
2023/05/31 06:48:55;;;;;;;1.27;0.50;;;;;;;;;;5035376;28;20124;-74
2023/05/31 06:51:22;;;;;;;0.40;0.40;;;;;;;;;;5047727;28;20079;-75
2023/05/31 06:53:49;;;;;;;0.57;0.50;;;;;;;;;;5050932;28;20021;-76
2023/05/31 06:56:15;;;;;;;1.35;0.68;;;;;;;;;;5049373;28;20060;-75
2023/05/31 06:58:41;;;;;;;0.43;0.43;;;;;;;;;;5046874;28;20025;-75
2023/05/31 07:01:07;;;;;;;0.60;0.50;;;;;;;;;;5051382;28;20083;-74
2023/05/31 07:03:33;;;;;;;0.80;0.68;;;;;;;;;;5049379;28;20452;-74
2023/05/31 07:05:59;;;;;;;0.80;0.30;;;;;;;;;;5050832;28;20091;-75
2023/05/31 07:08:25;;;;;;;0.77;0.52;;;;;;;;;;5042909;28;20029;-75
2023/05/31 07:10:51;;;;;;;7.28;0.50;;;;;;;;;;5048705;28;20052;-75
2023/05/31 07:13:17;;;;;;;0.50;0.32;;;;;;;;;;5051169;28;20182;-75
2023/05/31 07:15:43;;;;;;;0.63;0.40;;;;;;;;;;5050809;28;20033;-75
2023/05/31 07:18:09;;;;;;;0.40;0.40;;;;;;;;;;5049093;28;20866;-74
2023/05/31 07:20:35;;;;;;;2.03;0.68;;;;;;;;;;5037384;28;20488;-74
2023/05/31 07:23:01;;;;;;;0.85;0.40;;;;;;;;;;5051163;28;20028;-75
2023/05/31 07:25:27;;;;;;;0.38;0.35;;;;;;;;;;5051268;28;20021;-75
2023/05/31 07:27:53;;;;;;;0.63;0.40;;;;;;;;;;5049229;28;20021;-75
2023/05/31 07:30:19;;;;;;;0.43;0.35;;;;;;;;;;5045874;28;20029;-75
2023/05/31 07:32:45;;;;;;;0.65;0.65;;;;;;;;;;5051023;28;20033;-75
2023/05/31 07:35:11;;;;;;;0.85;0.70;;;;;;;;;;5045847;28;20033;-75
2023/05/31 07:37:37;;;;;;;1.67;0.80;;;;;;;;;;5050444;28;20059;-74
2023/05/31 07:40:06;;;;;;;0.57;0.50;;;;;;;;;;5049821;28;20594;-74
2023/05/31 07:42:33;;;;;;;1.02;0.50;;;;;;;;;;5040336;28;20033;-74
2023/05/31 07:44:59;;;;;;;0.40;0.40;;;;;;;;;;5043300;28;20033;-75
2023/05/31 07:47:25;;;;;;;1.17;0.63;;;;;;;;;;5050420;28;20196;-74
2023/05/31 07:49:54;;;;;;;0.80;0.68;;;;;;;;;;5050862;28;20021;-74
2023/05/31 07:52:23;;;;;;;1.05;0.68;;;;;;;;;;5046726;28;20029;-74
2023/05/31 07:54:49;;;;;;;0.80;0.50;;;;;;;;;;5049369;28;20029;-74
2023/05/31 07:57:16;;;;;;;0.98;0.70;;;;;;;;;;5048339;28;20108;-74
2023/05/31 07:59:42;;;;;;;0.88;0.40;;;;;;;;;;5046325;28;20033;-74
2023/05/31 08:02:08;;;;;;;0.35;0.25;;;;;;;;;;5050699;28;20033;-75
2023/05/31 08:04:34;;;;;;;0.82;0.70;;;;;;;;;;5043638;28;20373;-75
2023/05/31 08:07:00;;;;;;;0.32;0.30;;;;;;;;;;5041808;28;20033;-75
2023/05/31 08:09:27;;;;;;;0.65;0.35;;;;;;;;;;5063650;28;20029;-75
2023/05/31 08:11:53;;;;;;;0.73;0.40;;;;;;;;;;5041656;28;20106;-75
2023/05/31 08:14:19;;;;;;;0.50;0.50;;;;;;;;;;5037411;28;20025;-76
2023/05/31 08:16:45;;;;;;;0.52;0.47;;;;;;;;;;5049154;28;20048;-75
2023/05/31 08:19:12;;;;;;;1.38;0.68;;;;;;;;;;5050169;28;20472;-75
2023/05/31 08:21:38;;;;;;;1.80;0.43;;;;;;;;;;5045209;28;20025;-75
2023/05/31 08:24:05;;;;;;;0.45;0.40;;;;;;;;;;5050151;28;20037;-75
2023/05/31 08:26:32;;;;;;;0.65;0.45;;;;;;;;;;5045078;28;20013;-75
2023/05/31 08:28:58;;;;;;;0.50;0.50;;;;;;;;;;5032781;28;20036;-75
2023/05/31 08:31:26;;;;;;;1.73;0.43;;;;;;;;;;5032555;28;20041;-75
2023/05/31 08:33:56;;;;;;;4.35;0.50;;;;;;;;;;5049086;28;20029;-76
2023/05/31 08:36:22;;;;;;;0.77;0.52;;;;;;;;;;5037821;28;20040;-76
2023/05/31 08:38:48;;;;;;;3.78;0.57;;;;;;;;;;5047068;28;20033;-75
2023/05/31 08:41:14;;;;;;;1.90;0.40;;;;;;;;;;5045989;28;20033;-75
2023/05/31 08:43:40;;;;;;;0.57;0.47;;;;;;;;;;5049053;28;20025;-75
2023/05/31 08:46:07;;;;;;;0.43;0.40;;;;;;;;;;5049377;28;20044;-75
2023/05/31 08:48:33;;;;;;;0.38;0.38;;;;;;;;;;5048816;28;20480;-75
2023/05/31 08:51:00;;;;;;;0.45;0.40;;;;;;;;;;5047425;28;20033;-75
2023/05/31 08:53:26;;;;;;;0.20;0.20;;;;;;;;;;5049505;28;20024;-75
2023/05/31 08:55:55;;;;;;;1.65;0.57;;;;;;;;;;5049237;28;20087;-76
2023/05/31 08:58:21;;;;;;;0.30;0.30;;;;;;;;;;5048916;28;20079;-75
2023/05/31 09:00:48;;;;;;;0.65;0.30;;;;;;;;;;5043545;28;20095;-75
2023/05/31 09:03:14;;;;;;;0.60;0.38;;;;;;;;;;5032408;28;20243;-75
2023/05/31 09:05:41;;;;;;;0.75;0.40;;;;;;;;;;5042167;28;20057;-75
2023/05/31 09:08:07;;;;;;;0.52;0.43;;;;;;;;;;5055491;28;20016;-75
2023/05/31 09:10:33;;;;;;;0.40;0.40;;;;;;;;;;5069020;28;20077;-75
2023/05/31 09:12:59;;;;;;;0.60;0.50;;;;;;;;;;5063138;28;20115;-75
2023/05/31 09:15:26;;;;;;;0.40;0.40;;;;;;;;;;5048125;28;20048;-75
2023/05/31 09:17:52;;;;;;;0.55;0.55;;;;;;;;;;5048761;28;20033;-75
2023/05/31 09:20:19;;;;;;;0.60;0.60;;;;;;;;;;5048813;28;20085;-75
2023/05/31 09:22:51;;;;;;;0.85;0.55;;;;;;;;;;5042323;28;20107;-75
2023/05/31 09:25:17;;;;;;;0.65;0.47;;;;;;;;;;5043101;28;20025;-75
2023/05/31 09:27:43;;;;;;;0.28;0.28;;;;;;;;;;5043675;28;20021;-75
2023/05/31 09:30:10;;;;;;;0.63;0.40;;;;;;;;;;5042953;28;20021;-75
2023/05/31 09:32:37;;;;;;;0.77;0.63;;;;;;;;;;5048030;28;20391;-75
2023/05/31 09:35:15;;;;;;;0.60;0.60;;;;;;;;;;5038285;28;20106;-76
2023/05/31 09:37:48;;;;;;;0.57;0.40;;;;;;;;;;5036118;28;20037;-75
2023/05/31 09:40:15;;;;;;;0.55;0.30;;;;;;;;;;5045203;28;20033;-75
2023/05/31 09:42:48;;;;;;;0.80;0.70;;;;;;;;;;5048113;28;20137;-75
2023/05/31 09:45:14;;;;;;;1.08;0.73;;;;;;;;;;5048435;28;20023;-75
2023/05/31 09:47:40;;;;;;;0.25;0.25;;;;;;;;;;5045800;28;20044;-75
2023/05/31 09:50:10;;;;;;;0.30;0.30;;;;;;;;;;5047168;28;20064;-75
2023/05/31 09:52:40;;;;;;;0.30;0.30;;;;;;;;;;5047577;28;20472;-75
2023/05/31 09:55:10;;;;;;;0.40;0.40;;;;;;;;;;5047773;28;20035;-75
2023/05/31 09:57:40;;;;;;;0.40;0.40;;;;;;;;;;5045702;28;20044;-75
2023/05/31 10:00:16;;;;;;;0.90;0.50;;;;;;;;;;5029010;28;20079;-75
2023/05/31 10:02:46;;;;;;;1.08;0.43;;;;;;;;;;5043147;28;20025;-75
2023/05/31 10:05:12;;;;;;;0.40;0.30;;;;;;;;;;5047847;28;20574;-75
2023/05/31 10:07:39;;;;;;;0.57;0.40;;;;;;;;;;5045727;28;20025;-75
2023/05/31 10:10:06;;;;;;;0.40;0.40;;;;;;;;;;5048581;28;20029;-75
2023/05/31 10:12:32;;;;;;;0.40;0.40;;;;;;;;;;5047611;28;20429;-75
2023/05/31 10:15:04;;;;;;;1.85;0.40;;;;;;;;;;5047677;28;20095;-75
2023/05/31 10:17:34;;;;;;;0.47;0.47;;;;;;;;;;5044148;28;20026;-75
2023/05/31 10:20:07;;;;;;;0.52;0.50;;;;;;;;;;5045506;28;20479;-75
2023/05/31 10:22:36;;;;;;;1.10;0.45;;;;;;;;;;5047452;28;20108;-75
2023/05/31 10:25:07;;;;;;;0.20;0.20;;;;;;;;;;5047925;28;20036;-75
2023/05/31 10:27:42;;;;;;;0.40;0.40;;;;;;;;;;5046841;28;20035;-75
2023/05/31 10:30:10;;;;;;;0.30;0.30;;;;;;;;;;5043470;28;20029;-75
2023/05/31 10:32:46;;;;;;;0.40;0.38;;;;;;;;;;5051875;28;20044;-75
2023/05/31 10:35:12;;;;;;;0.28;0.28;;;;;;;;;;5051417;28;20032;-75
2023/05/31 10:37:41;;;;;;;0.70;0.70;;;;;;;;;;5051855;28;20021;-75
2023/05/31 10:40:11;;;;;;;0.52;0.40;;;;;;;;;;5049905;28;20032;-75
2023/05/31 10:42:41;;;;;;;0.40;0.30;;;;;;;;;;5050916;28;20037;-75
2023/05/31 10:45:13;;;;;;;0.60;0.60;;;;;;;;;;5051316;28;20025;-75
2023/05/31 10:48:02;;;;;;;0.60;0.50;;;;;;;;;;5050896;28;20028;-75
2023/05/31 10:50:28;;;;;;;0.50;0.30;;;;;;;;;;5040789;28;20539;-75
2023/05/31 10:53:09;;;;;;;0.52;0.52;;;;;;;;;;5048977;28;20051;-75
2023/05/31 10:55:42;;;;;;;0.20;0.20;;;;;;;;;;5051271;28;20037;-75
2023/05/31 10:58:08;;;;;;;0.40;0.40;;;;;;;;;;5050900;28;20127;-75
2023/05/31 11:00:42;;;;;;;0.85;0.55;;;;;;;;;;5048735;28;20116;-75
2023/05/31 11:03:11;;;;;;;0.22;0.20;;;;;;;;;;5043754;28;20166;-78
2023/05/31 11:05:36;;;;;;;0.77;0.35;;;;;;;;;;5070575;28;20574;-73
2023/05/31 11:08:13;;;;;;;0.50;0.50;;;;;;;;;;5053940;28;20025;-73
2023/05/31 11:10:39;;;;;;;0.32;0.32;;;;;;;;;;5050947;28;20024;-73
2023/05/31 11:13:05;;;;;;;0.43;0.40;;;;;;;;;;5042989;28;20033;-76
2023/05/31 11:15:41;;;;;;;0.43;0.43;;;;;;;;;;5042439;28;20472;-75
2023/05/31 11:18:13;;;;;;;0.20;0.20;;;;;;;;;;5051071;28;20500;-73
2023/05/31 11:20:39;;;;;;;0.50;0.40;;;;;;;;;;5050822;28;20029;-75
2023/05/31 11:23:17;;;;;;;0.43;0.35;;;;;;;;;;5050378;28;20361;-74
2023/05/31 11:25:43;;;;;;;1.98;0.30;;;;;;;;;;5048915;28;20112;-74
2023/05/31 11:28:10;;;;;;;0.68;0.40;;;;;;;;;;5050799;28;20025;-75
2023/05/31 11:30:36;;;;;;;0.68;0.45;;;;;;;;;;5050341;28;20494;-74
2023/05/31 11:33:03;;;;;;;0.30;0.30;;;;;;;;;;5049362;28;20033;-76
2023/05/31 11:35:33;;;;;;;0.40;0.40;;;;;;;;;;5048923;28;20414;-74
2023/05/31 11:38:03;;;;;;;0.40;0.30;;;;;;;;;;5050451;28;20388;-74
2023/05/31 11:40:32;;;;;;;0.40;0.40;;;;;;;;;;5050104;28;20045;-74
2023/05/31 11:43:06;;;;;;;0.43;0.38;;;;;;;;;;5048370;28;20395;-74
2023/05/31 11:45:33;;;;;;;0.20;0.20;;;;;;;;;;5050520;28;20460;-75
2023/05/31 11:48:17;;;;;;;0.40;0.30;;;;;;;;;;5050548;28;20021;-75
2023/05/31 11:50:43;;;;;;;0.50;0.50;;;;;;;;;;5050361;28;20029;-76
2023/05/31 11:53:11;;;;;;;0.55;0.35;;;;;;;;;;5046276;28;20029;-76
2023/05/31 11:55:37;;;;;;;0.20;0.20;;;;;;;;;;5038594;28;20021;-76
2023/05/31 11:58:06;;;;;;;0.60;0.43;;;;;;;;;;5050276;28;20112;-76
2023/05/31 12:00:32;;;;;;;0.30;0.30;;;;;;;;;;5050348;28;20021;-75
2023/05/31 12:02:59;;;;;;;0.65;0.40;;;;;;;;;;5049624;28;20029;-75
2023/05/31 12:05:25;;;;;;;0.80;0.50;;;;;;;;;;5044832;28;20118;-75
2023/05/31 12:08:20;;;;;;;0.40;0.40;;;;;;;;;;5049075;28;20029;-75
2023/05/31 12:10:46;;;;;;;0.40;0.40;;;;;;;;;;5041291;28;20484;-75
2023/05/31 12:13:16;;;;;;;1.15;0.65;;;;;;;;;;5050241;28;20020;-75
2023/05/31 12:15:41;;;;;;;0.77;0.45;;;;;;;;;;5048243;28;20124;-75
2023/05/31 12:18:07;;;;;;;0.45;0.40;;;;;;;;;;5042398;28;20539;-76
2023/05/31 12:20:34;;;;;;;0.20;0.20;;;;;;;;;;5049023;28;20487;-76
2023/05/31 12:23:10;;;;;;;0.40;0.40;;;;;;;;;;5045390;28;20025;-76
2023/05/31 12:25:36;;;;;;;0.30;0.30;;;;;;;;;;5037438;28;20013;-75
2023/05/31 12:28:06;;;;;;;0.38;0.38;;;;;;;;;;5038933;28;20032;-76
2023/05/31 12:30:44;;;;;;;0.40;0.40;;;;;;;;;;5042872;28;20048;-77
2023/05/31 12:33:11;;;;;;;0.40;0.40;;;;;;;;;;5038927;28;20055;-76
2023/05/31 12:35:40;;;;;;;0.40;0.40;;;;;;;;;;5055016;28;20502;-76
2023/05/31 12:38:07;;;;;;;0.40;0.40;;;;;;;;;;5048118;28;20434;-76
2023/05/31 12:40:37;;;;;;;0.50;0.50;;;;;;;;;;5043600;28;20542;-76
2023/05/31 12:43:03;;;;;;;0.45;0.40;;;;;;;;;;5035459;28;20079;-75
2023/05/31 12:45:29;;;;;;;0.47;0.47;;;;;;;;;;5046121;28;20091;-76
2023/05/31 12:47:59;;;;;;;0.60;0.30;;;;;;;;;;5049633;28;20025;-75
2023/05/31 12:50:29;;;;;;;0.35;0.20;;;;;;;;;;5046391;28;20478;-75
2023/05/31 12:52:57;;;;;;;0.50;0.50;;;;;;;;;;5047333;28;20040;-75
2023/05/31 12:55:23;;;;;;;0.30;0.30;;;;;;;;;;5057704;28;20099;-74
2023/05/31 12:57:55;;;;;;;0.82;0.40;;;;;;;;;;5047420;28;20092;-74
2023/05/31 13:00:24;;;;;;;0.50;0.50;;;;;;;;;;5041581;28;20400;-75
2023/05/31 13:02:51;;;;;;;0.40;0.30;;;;;;;;;;5045916;28;20472;-76
2023/05/31 13:05:17;;;;;;;0.85;0.30;;;;;;;;;;5058496;28;20552;-79
2023/05/31 13:07:43;;;;;;;0.73;0.47;;;;;;;;;;5047283;28;20025;-76
2023/05/31 13:10:09;;;;;;;0.25;0.25;;;;;;;;;;5055998;28;20114;-76
2023/05/31 13:12:35;;;;;;;0.25;0.25;;;;;;;;;;5042266;28;20510;-76
2023/05/31 13:15:01;;;;;;;0.50;0.40;;;;;;;;;;5040213;28;20112;-72
2023/05/31 13:17:27;;;;;;;3.15;0.40;;;;;;;;;;5048837;28;20538;-75
2023/05/31 13:19:53;;;;;;;0.45;0.45;;;;;;;;;;5046067;28;20021;-75
2023/05/31 13:22:19;;;;;;;0.35;0.30;;;;;;;;;;5058932;28;20026;-75
2023/05/31 13:24:45;;;;;;;0.43;0.43;;;;;;;;;;5039384;28;20024;-75
2023/05/31 13:27:11;;;;;;;0.60;0.52;;;;;;;;;;5039005;28;20033;-77
2023/05/31 13:29:38;;;;;;;6.38;0.80;;;;;;;;;;5033928;28;20026;-77
2023/05/31 13:32:04;;;;;;;2.30;0.70;;;;;;;;;;5035422;28;20020;-78
2023/05/31 13:34:30;;;;;;;0.60;0.60;;;;;;;;;;5040834;28;20365;-76
2023/05/31 13:36:56;;;;;;;0.60;0.40;;;;;;;;;;5054121;28;20083;-76
2023/05/31 13:39:22;;;;;;;0.50;0.50;;;;;;;;;;5047327;28;20028;-76
2023/05/31 13:41:48;;;;;;;0.80;0.55;;;;;;;;;;5048629;28;20102;-77
2023/05/31 13:44:15;;;;;;;0.65;0.65;;;;;;;;;;5046670;28;20021;-77
2023/05/31 13:46:42;;;;;;;1.23;0.73;;;;;;;;;;5042436;28;20025;-78
2023/05/31 13:49:08;;;;;;;0.40;0.40;;;;;;;;;;5038316;28;20021;-78
2023/05/31 13:51:34;;;;;;;0.38;0.38;;;;;;;;;;5043288;28;20028;-77
2023/05/31 13:54:00;;;;;;;0.70;0.70;;;;;;;;;;5038963;28;20035;-76
2023/05/31 13:56:26;;;;;;;0.40;0.40;;;;;;;;;;5046052;28;20598;-83
2023/05/31 13:58:53;;;;;;;1.65;0.52;;;;;;;;;;5040640;28;20040;-83
2023/05/31 14:01:18;;;;;;;0.63;0.50;;;;;;;;;;5039715;28;20033;-83
2023/05/31 14:03:46;;;;;;;0.77;0.47;;;;;;;;;;5041715;28;20040;-83
2023/05/31 14:06:12;;;;;;;0.40;0.32;;;;;;;;;;5039025;28;20407;-83
2023/05/31 14:08:38;;;;;;;0.68;0.60;;;;;;;;;;5039852;28;20078;-83
2023/05/31 14:11:04;;;;;;;1.70;0.60;;;;;;;;;;5053666;28;20025;-84
2023/05/31 14:13:30;;;;;;;0.52;0.50;;;;;;;;;;5058811;28;20021;-83
2023/05/31 14:15:56;;;;;;;1.27;0.43;;;;;;;;;;5048390;28;20028;-83
2023/05/31 14:18:22;;;;;;;0.85;0.70;;;;;;;;;;5036890;28;20087;-82
2023/05/31 14:20:51;;;;;;;0.32;0.32;;;;;;;;;;5048170;28;20021;-83
2023/05/31 14:23:17;;;;;;;0.63;0.45;;;;;;;;;;5043087;28;20021;-82
2023/05/31 14:25:43;;;;;;;2.50;0.52;;;;;;;;;;5035446;28;20044;-77
2023/05/31 14:28:09;;;;;;;1.08;0.60;;;;;;;;;;5036086;28;20021;-85
2023/05/31 14:30:35;;;;;;;0.50;0.50;;;;;;;;;;5038333;28;20052;-85
2023/05/31 14:33:03;;;;;;;0.75;0.75;;;;;;;;;;5043713;28;20025;-84
2023/05/31 14:35:29;;;;;;;0.77;0.57;;;;;;;;;;5041472;28;20033;-83
2023/05/31 14:37:55;;;;;;;1.27;0.75;;;;;;;;;;5046406;28;20068;-84
2023/05/31 14:40:21;;;;;;;0.68;0.60;;;;;;;;;;5049417;28;20049;-85
2023/05/31 14:42:47;;;;;;;0.68;0.60;;;;;;;;;;5045033;28;20022;-78